| time (UTC) | temp C | wind direction | speed KPH | gust KPH | rain 1hr cm | rain 24hr cm | rain mn cm | humidity % | barometer mb |
| 20260503200509 | 26 | 18 | 3.2 | 17.7 | 0.00 | 0.00 | 0.00 | 35 | 1013.6 |
| 20260503200006 | 26 | 34 | 6.4 | 12.9 | 0.00 | 0.00 | 0.00 | 35 | 1013.7 |
| 20260503195506 | 25 | 14 | 6.4 | 14.5 | 0.00 | 0.00 | 0.00 | 37 | 1013.8 |
| 20260503195010 | 25 | 41 | 6.4 | 14.5 | 0.00 | 0.00 | 0.00 | 37 | 1013.9 |
| 20260503194524 | 25 | 352 | 4.8 | 9.7 | 0.00 | 0.00 | 0.00 | 39 | 1013.9 |
| 20260503194004 | 25 | 323 | 6.4 | 9.7 | 0.00 | 0.00 | 0.00 | 41 | 1014.0 |
| 20260503193510 | 25 | 349 | 3.2 | 8.0 | 0.00 | 0.00 | 0.00 | 42 | 1014.0 |
| 20260503193020 | 25 | 352 | 1.6 | 8.0 | 0.00 | 0.00 | 0.00 | 43 | 1014.0 |
| 20260503192504 | 25 | 32 | 4.8 | 8.0 | 0.00 | 0.00 | 0.00 | 42 | 1014.1 |
| 20260503192006 | 24 | 346 | 4.8 | 8.0 | 0.00 | 0.00 | 0.00 | 41 | 1014.0 |
| 20260503191517 | 24 | 342 | 1.6 | 4.8 | 0.00 | 0.00 | 0.00 | 41 | 1014.0 |
| 20260503191013 | 23 | 275 | 0.0 | 4.8 | 0.00 | 0.00 | 0.00 | 41 | 1014.1 |
| 20260503190505 | 23 | 273 | 1.6 | 4.8 | 0.00 | 0.00 | 0.00 | 43 | 1014.1 |
| 20260503190015 | 23 | 237 | 1.6 | 6.4 | 0.00 | 0.00 | 0.00 | 43 | 1014.2 |
| 20260503185509 | 23 | 278 | 3.2 | 8.0 | 0.00 | 0.00 | 0.00 | 43 | 1014.2 |
| 20260503185003 | 22 | 203 | 3.2 | 8.0 | 0.00 | 0.00 | 0.00 | 44 | 1014.4 |
| 20260503184509 | 22 | 268 | 0.0 | 4.8 | 0.00 | 0.00 | 0.00 | 44 | 1014.4 |
| 20260503184004 | 22 | 297 | 1.6 | 9.7 | 0.00 | 0.00 | 0.00 | 43 | 1014.5 |
| 20260503183509 | 22 | 294 | 3.2 | 8.0 | 0.00 | 0.00 | 0.00 | 46 | 1014.5 |
| 20260503183008 | 21 | 182 | 1.6 | 8.0 | 0.00 | 0.00 | 0.00 | 48 | 1014.6 |
| 20260503182509 | 21 | 352 | 0.0 | 4.8 | 0.00 | 0.00 | 0.00 | 49 | 1014.7 |
| 20260503182009 | 21 | 300 | 0.0 | 6.4 | 0.00 | 0.00 | 0.00 | 48 | 1014.7 |
| 20260503181524 | 21 | 278 | 0.0 | 6.4 | 0.00 | 0.00 | 0.00 | 50 | 1014.7 |
| 20260503181006 | 20 | 244 | 0.0 | 4.8 | 0.00 | 0.00 | 0.00 | 52 | 1014.6 |
| 20260503180507 | 20 | 330 | 1.6 | 4.8 | 0.00 | 0.00 | 0.00 | 52 | 1014.7 |
| 20260503180029 | 19 | 194 | 3.2 | 4.8 | 0.00 | 0.00 | 0.00 | 53 | 1014.7 |
| 20260503175504 | 19 | 269 | 0.0 | 4.8 | 0.00 | 0.00 | 0.00 | 53 | 1014.9 |
| 20260503175008 | 18 | 350 | 1.6 | 4.8 | 0.00 | 0.00 | 0.00 | 53 | 1015.0 |
| 20260503174523 | 18 | 302 | 0.0 | 3.2 | 0.00 | 0.00 | 0.00 | 55 | 1014.9 |
| 20260503174007 | 18 | 188 | 0.0 | 6.4 | 0.00 | 0.00 | 0.00 | 54 | 1015.0 |
| 20260503173507 | 18 | 352 | 0.0 | 6.4 | 0.00 | 0.00 | 0.00 | 55 | 1015.0 |
| 20260503173027 | 18 | 262 | 1.6 | 4.8 | 0.00 | 0.00 | 0.00 | 55 | 1015.1 |
| 20260503172509 | 17 | 335 | 1.6 | 4.8 | 0.00 | 0.00 | 0.00 | 55 | 1015.1 |
| 20260503172012 | 17 | 320 | 3.2 | 4.8 | 0.00 | 0.00 | 0.00 | 56 | 1015.1 |
| 20260503171519 | 17 | 306 | 0.0 | 3.2 | 0.00 | 0.00 | 0.00 | 58 | 1015.2 |
| 20260503171011 | 16 | 278 | 1.6 | 3.2 | 0.00 | 0.00 | 0.00 | 56 | 1015.2 |
| 20260503170509 | 16 | 183 | 1.6 | 3.2 | 0.00 | 0.00 | 0.00 | 62 | 1015.2 |
| 20260503151010 | 10 | 82 | 0.0 | 0.0 | 0.00 | 0.00 | 0.00 | 89 | 1016.1 |
| 20260503150509 | 10 | 82 | 0.0 | 0.0 | 0.00 | 0.00 | 0.00 | 89 | 1016.2 |
| 20260503131005 | 9 | 82 | 0.0 | 0.0 | 0.00 | 0.00 | 0.00 | 89 | 1016.1 |
| 20260503130510 | 9 | 82 | 0.0 | 0.0 | 0.00 | 0.00 | 0.00 | 88 | 1016.1 |
| 20260503110512 | 10 | 82 | 0.0 | 0.0 | 0.00 | 0.00 | 0.00 | 86 | 1016.0 |
| 20260503090509 | 11 | 82 | 0.0 | 0.0 | 0.00 | 0.00 | 0.00 | 80 | 1016.3 |
| 20260503081537 | 12 | 63 | 0.0 | 0.0 | 0.00 | 0.00 | 0.00 | 78 | 1016.1 |
| 20260503081009 | 12 | 63 | 0.0 | 0.0 | 0.00 | 0.00 | 0.00 | 79 | 1016.1 |
| 20260503080508 | 12 | 63 | 0.0 | 0.0 | 0.00 | 0.00 | 0.00 | 79 | 1016.2 |
| 20260503072512 | 13 | 63 | 0.0 | 0.0 | 0.00 | 0.00 | 0.00 | 76 | 1016.2 |
| 20260503072012 | 13 | 63 | 0.0 | 0.0 | 0.00 | 0.00 | 0.00 | 76 | 1016.2 |
| 20260503071536 | 13 | 63 | 0.0 | 0.0 | 0.00 | 0.00 | 0.00 | 74 | 1016.2 |
| 20260503071006 | 13 | 63 | 0.0 | 0.0 | 0.00 | 0.00 | 0.00 | 75 | 1016.2 |
| 20260503070511 | 13 | 45 | 0.0 | 0.0 | 0.00 | 0.00 | 0.00 | 73 | 1016.1 |
| 20260503055008 | 16 | 13 | 0.0 | 0.0 | 0.00 | 0.00 | 0.00 | 70 | 1015.9 |
| 20260503054532 | 16 | 13 | 0.0 | 0.0 | 0.00 | 0.00 | 0.00 | 68 | 1015.8 |
| 20260503054006 | 16 | 13 | 0.0 | 0.0 | 0.00 | 0.00 | 0.00 | 67 | 1015.9 |
| 20260503053505 | 16 | 13 | 0.0 | 0.0 | 0.00 | 0.00 | 0.00 | 66 | 1015.9 |
| 20260503053022 | 16 | 13 | 0.0 | 0.0 | 0.00 | 0.00 | 0.00 | 62 | 1015.9 |
| 20260503052508 | 17 | 13 | 0.0 | 0.0 | 0.00 | 0.00 | 0.00 | 64 | 1015.8 |
| 20260503052007 | 17 | 13 | 0.0 | 0.0 | 0.00 | 0.00 | 0.00 | 60 | 1015.8 |
| 20260503051529 | 17 | 53 | 0.0 | 0.0 | 0.00 | 0.00 | 0.00 | 62 | 1015.8 |
| 20260503051008 | 17 | 76 | 0.0 | 0.0 | 0.00 | 0.00 | 0.00 | 61 | 1015.7 |
| 20260503050503 | 17 | 76 | 0.0 | 0.0 | 0.00 | 0.00 | 0.00 | 59 | 1015.7 |
| 20260503050017 | 18 | 76 | 0.0 | 0.0 | 0.00 | 0.00 | 0.00 | 57 | 1015.7 |
| 20260503045508 | 18 | 76 | 0.0 | 0.0 | 0.00 | 0.00 | 0.00 | 57 | 1015.6 |
| 20260503045011 | 18 | 76 | 0.0 | 3.2 | 0.00 | 0.00 | 0.00 | 55 | 1015.6 |
| 20260503044510 | 18 | 76 | 0.0 | 3.2 | 0.00 | 0.00 | 0.00 | 55 | 1015.6 |
| 20260503044009 | 18 | 63 | 0.0 | 3.2 | 0.00 | 0.00 | 0.00 | 55 | 1015.7 |
| 20260503043513 | 18 | 63 | 0.0 | 3.2 | 0.00 | 0.00 | 0.00 | 57 | 1015.6 |
| 20260503043006 | 18 | 63 | 0.0 | 3.2 | 0.00 | 0.00 | 0.00 | 57 | 1015.5 |
| 20260503042506 | 18 | 63 | 0.0 | 3.2 | 0.00 | 0.00 | 0.00 | 57 | 1015.5 |
| 20260503042006 | 18 | 50 | 0.0 | 3.2 | 0.00 | 0.00 | 0.00 | 57 | 1015.6 |
| 20260503041530 | 18 | 88 | 0.0 | 3.2 | 0.00 | 0.00 | 0.00 | 59 | 1015.5 |
| 20260503041005 | 18 | 98 | 0.0 | 3.2 | 0.00 | 0.00 | 0.00 | 57 | 1015.4 |
| 20260503040507 | 18 | 80 | 0.0 | 3.2 | 0.00 | 0.00 | 0.00 | 58 | 1015.4 |
| 20260503040024 | 19 | 82 | 0.0 | 3.2 | 0.00 | 0.00 | 0.00 | 55 | 1015.3 |
| 20260503035509 | 20 | 105 | 0.0 | 3.2 | 0.00 | 0.00 | 0.00 | 58 | 1015.4 |
| 20260503035006 | 20 | 105 | 1.6 | 1.6 | 0.00 | 0.00 | 0.00 | 57 | 1015.4 |
| 20260503034520 | 20 | 105 | 0.0 | 3.2 | 0.00 | 0.00 | 0.00 | 55 | 1015.3 |
| 20260503034011 | 20 | 105 | 0.0 | 3.2 | 0.00 | 0.00 | 0.00 | 54 | 1015.2 |
| 20260503033503 | 21 | 352 | 1.6 | 3.2 | 0.00 | 0.00 | 0.00 | 49 | 1015.2 |
| 20260503033018 | 21 | 119 | 0.0 | 3.2 | 0.00 | 0.00 | 0.00 | 49 | 1015.1 |
| 20260503032509 | 21 | 119 | 0.0 | 3.2 | 0.00 | 0.00 | 0.00 | 50 | 1015.1 |
| 20260503032010 | 22 | 112 | 0.0 | 3.2 | 0.00 | 0.00 | 0.00 | 48 | 1015.0 |
| 20260503031513 | 22 | 185 | 1.6 | 3.2 | 0.00 | 0.00 | 0.00 | 42 | 1015.0 |
| 20260503031007 | 23 | 34 | 0.0 | 4.8 | 0.00 | 0.00 | 0.00 | 40 | 1014.9 |
| 20260503030511 | 23 | 42 | 0.0 | 4.8 | 0.00 | 0.00 | 0.00 | 43 | 1014.8 |
| 20260503030033 | 23 | 69 | 0.0 | 3.2 | 0.00 | 0.00 | 0.00 | 39 | 1014.9 |
| 20260503025508 | 24 | 112 | 1.6 | 3.2 | 0.00 | 0.00 | 0.00 | 41 | 1014.8 |
| 20260503025007 | 25 | 30 | 0.0 | 3.2 | 0.00 | 0.00 | 0.00 | 35 | 1014.8 |
| 20260503024532 | 25 | 38 | 0.0 | 3.2 | 0.00 | 0.00 | 0.00 | 38 | 1014.7 |
| 20260503024010 | 25 | 49 | 0.0 | 3.2 | 0.00 | 0.00 | 0.00 | 37 | 1014.7 |
| 20260503023507 | 25 | 90 | 0.0 | 4.8 | 0.00 | 0.00 | 0.00 | 37 | 1014.7 |
| 20260503023025 | 25 | 348 | 0.0 | 4.8 | 0.00 | 0.00 | 0.00 | 34 | 1014.7 |
| 20260503022507 | 26 | 82 | 1.6 | 4.8 | 0.00 | 0.00 | 0.00 | 34 | 1014.7 |
| 20260503022006 | 26 | 104 | 1.6 | 8.0 | 0.00 | 0.00 | 0.00 | 34 | 1014.6 |
| 20260503021520 | 26 | 55 | 0.0 | 8.0 | 0.00 | 0.00 | 0.00 | 31 | 1014.6 |
| 20260503021010 | 26 | 40 | 0.0 | 6.4 | 0.00 | 0.00 | 0.00 | 32 | 1014.6 |
| 20260503020507 | 26 | 67 | 1.6 | 6.4 | 0.00 | 0.00 | 0.00 | 32 | 1014.6 |
| 20260503020020 | 26 | 339 | 1.6 | 9.7 | 0.00 | 0.00 | 0.00 | 30 | 1014.6 |
| 20260503015510 | 26 | 86 | 0.0 | 9.7 | 0.00 | 0.00 | 0.00 | 33 | 1014.7 |
| 20260503015012 | 26 | 81 | 1.6 | 8.0 | 0.00 | 0.00 | 0.00 | 32 | 1014.7 |
| 20260503014516 | 26 | 57 | 0.0 | 9.7 | 0.00 | 0.00 | 0.00 | 30 | 1014.8 |
| 20260503014010 | 26 | 95 | 3.2 | 12.9 | 0.00 | 0.00 | 0.00 | 30 | 1014.8 |
| 20260503013509 | 26 | 71 | 3.2 | 12.9 | 0.00 | 0.00 | 0.00 | 32 | 1014.8 |
| 20260503013034 | 26 | 67 | 0.0 | 4.8 | 0.00 | 0.00 | 0.00 | 32 | 1014.9 |
| 20260503012508 | 27 | 84 | 3.2 | 4.8 | 0.00 | 0.00 | 0.00 | 30 | 1014.9 |
| 20260503012011 | -17 | 76 | 1.6 | 8.0 | 0.00 | 0.00 | 0.00 | 30 | 1014.9 |
| 20260503011528 | 27 | 59 | 1.6 | 6.4 | 0.00 | 0.00 | 0.00 | 29 | 1014.9 |
| 20260503011008 | 27 | 65 | 0.0 | 12.9 | 0.00 | 0.00 | 0.00 | 32 | 1014.9 |
| 20260503010507 | 27 | 324 | 1.6 | 12.9 | 0.00 | 0.00 | 0.00 | 29 | 1014.9 |
| 20260503010028 | 27 | 48 | 1.6 | 9.7 | 0.00 | 0.00 | 0.00 | 31 | 1014.9 |
| 20260503005511 | 27 | 24 | 1.6 | 9.7 | 0.00 | 0.00 | 0.00 | 30 | 1015.0 |
| 20260503005008 | 27 | 58 | 0.0 | 6.4 | 0.00 | 0.00 | 0.00 | 32 | 1015.0 |
| 20260503004525 | 27 | 90 | 1.6 | 12.9 | 0.00 | 0.00 | 0.00 | 29 | 1015.0 |
| 20260503004008 | 27 | 95 | 1.6 | 12.9 | 0.00 | 0.00 | 0.00 | 31 | 1015.0 |
| 20260503003506 | 27 | 76 | 3.2 | 9.7 | 0.00 | 0.00 | 0.00 | 29 | 1015.0 |
| 20260503003027 | 27 | 80 | 1.6 | 14.5 | 0.00 | 0.00 | 0.00 | 31 | 1015.0 |
| 20260503002507 | 27 | 76 | 3.2 | 14.5 | 0.00 | 0.00 | 0.00 | 29 | 1015.1 |
| 20260503002010 | 27 | 12 | 6.4 | 16.1 | 0.00 | 0.00 | 0.00 | 28 | 1015.0 |
| 20260503001519 | 27 | 352 | 3.2 | 16.1 | 0.00 | 0.00 | 0.00 | 30 | 1015.1 |
| 20260503001007 | 27 | 48 | 1.6 | 19.3 | 0.00 | 0.00 | 0.00 | 30 | 1015.1 |
| 20260503000511 | 27 | 350 | 3.2 | 17.7 | 0.00 | 0.00 | 0.00 | 28 | 1015.2 |
| 20260503000003 | 27 | 350 | 6.4 | 16.1 | 0.00 | 0.00 | 0.00 | 31 | 1015.1 |
| 20260502235504 | 27 | 77 | 3.2 | 16.1 | 0.00 | 0.00 | 0.00 | 29 | 1015.1 |
| 20260502235003 | 27 | 57 | 3.2 | 12.9 | 0.00 | 0.00 | 0.00 | 30 | 1015.2 |
| 20260502234519 | 27 | 78 | 3.2 | 9.7 | 0.00 | 0.00 | 0.00 | 30 | 1015.2 |
| 20260502234004 | 27 | 82 | 3.2 | 8.0 | 0.00 | 0.00 | 0.00 | 32 | 1015.2 |
| 20260502233503 | 27 | 84 | 3.2 | 11.3 | 0.00 | 0.00 | 0.00 | 30 | 1015.2 |
| 20260502233010 | 27 | 42 | 4.8 | 14.5 | 0.00 | 0.00 | 0.00 | 30 | 1015.3 |
| 20260502232459 | 27 | 78 | 1.6 | 14.5 | 0.00 | 0.00 | 0.00 | 32 | 1015.5 |
| 20260502232003 | 27 | 71 | 3.2 | 14.5 | 0.00 | 0.00 | 0.00 | 31 | 1015.6 |
| 20260502231507 | 27 | 15 | 3.2 | 12.9 | 0.00 | 0.00 | 0.00 | 30 | 1015.7 |
| 20260502231006 | 27 | 348 | 1.6 | 17.7 | 0.00 | 0.00 | 0.00 | 31 | 1015.6 |
| 20260502230503 | 27 | 303 | 3.2 | 22.5 | 0.00 | 0.00 | 0.00 | 32 | 1015.7 |
| 20260502230008 | 27 | 345 | 3.2 | 22.5 | 0.00 | 0.00 | 0.00 | 31 | 1015.8 |
| 20260502225503 | 27 | 340 | 8.0 | 22.5 | 0.00 | 0.00 | 0.00 | 30 | 1015.8 |
| 20260502225007 | 27 | 36 | 3.2 | 12.9 | 0.00 | 0.00 | 0.00 | 31 | 1015.9 |
| 20260502224524 | 27 | 130 | 1.6 | 14.5 | 0.00 | 0.00 | 0.00 | 33 | 1016.0 |
| 20260502224004 | 27 | 96 | 3.2 | 14.5 | 0.00 | 0.00 | 0.00 | 33 | 1016.1 |
| 20260502223507 | 27 | 360 | 8.0 | 12.9 | 0.00 | 0.00 | 0.00 | 32 | 1016.1 |
| 20260502223005 | 27 | 42 | 1.6 | 9.7 | 0.00 | 0.00 | 0.00 | 35 | 1016.1 |
| 20260502222504 | 27 | 14 | 4.8 | 16.1 | 0.00 | 0.00 | 0.00 | 35 | 1016.2 |
| 20260502222006 | 26 | 21 | 1.6 | 16.1 | 0.00 | 0.00 | 0.00 | 35 | 1016.3 |
| 20260502221516 | 26 | 352 | 4.8 | 16.1 | 0.00 | 0.00 | 0.00 | 35 | 1016.4 |
| 20260502221003 | 26 | 17 | 6.4 | 16.1 | 0.00 | 0.00 | 0.00 | 34 | 1016.3 |
| 20260502220503 | 27 | 24 | 3.2 | 14.5 | 0.00 | 0.00 | 0.00 | 33 | 1016.3 |
| 20260502220019 | 27 | 41 | 3.2 | 16.1 | 0.00 | 0.00 | 0.00 | 34 | 1016.3 |
| 20260502215503 | 27 | 333 | 1.6 | 16.1 | 0.00 | 0.00 | 0.00 | 32 | 1016.3 |
| 20260502215004 | 27 | 5 | 3.2 | 12.9 | 0.00 | 0.00 | 0.00 | 34 | 1016.3 |
| 20260502214509 | 26 | 5 | 4.8 | 12.9 | 0.00 | 0.00 | 0.00 | 32 | 1016.3 |
| 20260502214007 | 27 | 5 | 3.2 | 12.9 | 0.00 | 0.00 | 0.00 | 32 | 1016.3 |
| 20260502213504 | 26 | 360 | 1.6 | 12.9 | 0.00 | 0.00 | 0.00 | 31 | 1016.4 |
| 20260502213019 | 26 | 342 | 4.8 | 12.9 | 0.00 | 0.00 | 0.00 | 32 | 1016.4 |
| 20260502212508 | 26 | 5 | 3.2 | 8.0 | 0.00 | 0.00 | 0.00 | 31 | 1016.5 |
| 20260502212008 | 26 | 157 | 1.6 | 14.5 | 0.00 | 0.00 | 0.00 | 31 | 1016.6 |
| 20260502211505 | 26 | 51 | 4.8 | 14.5 | 0.00 | 0.00 | 0.00 | 32 | 1016.5 |
| 20260502211007 | 26 | 20 | 4.8 | 14.5 | 0.00 | 0.00 | 0.00 | 35 | 1016.6 |
| 20260502210506 | 26 | 71 | 0.0 | 9.7 | 0.00 | 0.00 | 0.00 | 35 | 1016.6 |
| 20260502210004 | 26 | 101 | 1.6 | 9.7 | 0.00 | 0.00 | 0.00 | 36 | 1016.6 |
| 20260502205504 | 26 | 93 | 1.6 | 12.9 | 0.00 | 0.00 | 0.00 | 33 | 1016.7 |
| 20260502205008 | 25 | 15 | 3.2 | 14.5 | 0.00 | 0.00 | 0.00 | 33 | 1016.6 |
| 20260502204520 | 25 | 324 | 3.2 | 14.5 | 0.00 | 0.00 | 0.00 | 37 | 1016.7 |
| 20260502204006 | 25 | 5 | 4.8 | 12.9 | 0.00 | 0.00 | 0.00 | 35 | 1016.7 |
| 20260502203505 | 25 | 9 | 1.6 | 9.7 | 0.00 | 0.00 | 0.00 | 38 | 1016.8 |
| 20260502203020 | 25 | 327 | 4.8 | 12.9 | 0.00 | 0.00 | 0.00 | 35 | 1016.9 |
| 20260502202507 | 25 | 331 | 1.6 | 12.9 | 0.00 | 0.00 | 0.00 | 39 | 1017.0 |
| 20260502202004 | 25 | 5 | 4.8 | 8.0 | 0.00 | 0.00 | 0.00 | 39 | 1017.0 |
| 20260502201524 | 24 | 342 | 3.2 | 14.5 | 0.00 | 0.00 | 0.00 | 42 | 1017.0 |
| 20260502201008 | 23 | 340 | 6.4 | 14.5 | 0.00 | 0.00 | 0.00 | 40 | 1017.1 |